Terminal Aerodrome Forecast
Issued by NWS

Current Version | Previous Version | Graphics & Text | Print | Product List | Glossary On
Versions: 1 2 3 4 5 6 7 8 9 10 11 12 13 14 15 16
000
FTUS41 KILN 241218 AAA
TAFLUK
TAF AMD
KLUK 241218Z 2412/2512 14005KT P6SM SCT015 OVC150
      TEMPO 2412/2414 BKN012
     FM241400 12005KT P6SM VCSH OVC050
     FM241800 12005KT 4SM SHRA VCTS OVC025CB
     FM242300 02009KT P6SM VCSH BKN015
     FM250600 24007KT 4SM BR VCSH OVC010=

USA.gov is the U.S. government's official web portal to all federal, state and local government web resources and services.